Weather at Bari Guardia di Finanza Heliport

Public forecast

Using degrees Celsius for public forecast. Weather courtesy of forecast.io.

Closest aviation weather report (METAR) to Bari Guardia di Finanza Heliport

Closest report is Bari Karol Wojtyła Airport, 0.7 nm (1.3 km) W.

2024/05/30 03:20 (retrieved 35 minutes ago)

LIBD 300320Z 21004KT CAVOK 15/12 Q1010

Closest aviation forecast (TAF) to Bari Guardia di Finanza Heliport

Forecast is more than 6 hours old.

Closest forecast is Foggia "Gino Lisa" Airport, 58.7 nm (108.7 km) WNW.

2024/05/29 18:00 Ammendment (retrieved 10 hours ago)

TAF AMD LIBF 292123Z 2918/3018 CNL